createdAt,value
2023-05-09T00:01:18.390Z,22.53
2023-05-09T00:03:44.865Z,20.63
2023-05-09T00:06:11.610Z,20.45
2023-05-09T00:08:38.091Z,25.20
2023-05-09T00:11:04.734Z,26.92
2023-05-09T00:13:31.109Z,26.23
2023-05-09T00:15:58.444Z,27.25
2023-05-09T00:18:24.957Z,25.80
2023-05-09T00:20:51.401Z,23.05
2023-05-09T00:23:17.937Z,21.98
2023-05-09T00:25:44.493Z,20.77
2023-05-09T00:28:11.192Z,23.70
2023-05-09T00:30:37.781Z,22.92
2023-05-09T00:33:04.492Z,23.10
2023-05-09T00:35:32.259Z,24.77
2023-05-09T00:37:59.440Z,21.03
2023-05-09T00:40:26.034Z,24.58
2023-05-09T00:42:52.559Z,42.70
2023-05-09T00:45:19.096Z,28.40
2023-05-09T00:47:45.632Z,28.67
2023-05-09T00:50:12.311Z,31.30
2023-05-09T00:52:39.157Z,26.67
2023-05-09T00:55:08.263Z,27.42
2023-05-09T00:57:35.111Z,22.52
2023-05-09T01:00:01.846Z,25.70
2023-05-09T01:02:28.666Z,26.73
2023-05-09T01:04:56.005Z,27.40
2023-05-09T01:07:43.614Z,24.33
2023-05-09T01:10:26.577Z,29.30
2023-05-09T01:13:00.222Z,26.73
2023-05-09T01:15:36.221Z,24.37
2023-05-09T01:18:28.310Z,23.40
2023-05-09T01:21:01.850Z,24.90
2023-05-09T01:23:45.351Z,29.08
2023-05-09T01:26:32.650Z,23.75
2023-05-09T01:29:29.220Z,23.70
2023-05-09T01:31:58.078Z,25.55
2023-05-09T01:34:27.263Z,23.15
2023-05-09T01:36:58.458Z,25.33
2023-05-09T01:39:26.954Z,24.98
2023-05-09T01:41:56.664Z,24.17
2023-05-09T01:44:25.517Z,26.08
2023-05-09T01:46:54.674Z,23.77
2023-05-09T01:49:22.709Z,26.75
2023-05-09T01:51:50.694Z,25.20
2023-05-09T01:54:18.499Z,24.77
2023-05-09T01:56:46.008Z,24.85
2023-05-09T01:59:16.209Z,25.85
2023-05-09T02:01:44.634Z,23.60
2023-05-09T02:04:12.654Z,23.60
2023-05-09T02:06:40.381Z,22.40
2023-05-09T02:09:07.142Z,24.52
2023-05-09T02:11:33.592Z,31.50
2023-05-09T02:14:00.195Z,32.17
2023-05-09T02:16:27.739Z,25.73
2023-05-09T02:18:54.240Z,25.63
2023-05-09T02:21:20.755Z,27.38
2023-05-09T02:23:47.644Z,28.10
2023-05-09T02:26:14.749Z,26.10
2023-05-09T02:28:44.006Z,24.05
2023-05-09T02:31:13.955Z,27.10
2023-05-09T02:33:42.874Z,27.73
2023-05-09T02:36:10.232Z,26.90
2023-05-09T02:38:37.005Z,35.53
2023-05-09T02:41:03.399Z,34.20
2023-05-09T02:43:29.786Z,32.23
2023-05-09T02:45:56.336Z,30.77
2023-05-09T02:48:23.231Z,31.85
2023-05-09T02:50:49.720Z,34.75
2023-05-09T02:53:16.230Z,32.67
2023-05-09T02:55:42.678Z,36.07
2023-05-09T02:58:14.087Z,33.85
2023-05-09T03:00:41.825Z,30.50
2023-05-09T03:03:08.513Z,31.38
2023-05-09T03:05:35.267Z,29.75
2023-05-09T03:08:01.752Z,31.67
2023-05-09T03:10:28.298Z,28.35
2023-05-09T03:12:54.859Z,29.92
2023-05-09T03:15:21.553Z,31.30
2023-05-09T03:17:48.052Z,34.83
2023-05-09T03:20:15.702Z,30.47
2023-05-09T03:22:42.334Z,32.42
2023-05-09T03:25:09.479Z,34.80
2023-05-09T03:27:35.966Z,34.90
2023-05-09T03:30:03.846Z,36.17
2023-05-09T03:32:30.505Z,30.90
2023-05-09T03:34:57.300Z,32.88
2023-05-09T03:37:25.476Z,39.10
2023-05-09T03:39:53.210Z,35.13
2023-05-09T03:42:19.642Z,34.63
2023-05-09T03:44:46.366Z,35.23
2023-05-09T03:47:12.761Z,36.75
2023-05-09T03:49:39.227Z,39.53
2023-05-09T03:52:05.794Z,37.42
2023-05-09T03:54:32.188Z,38.13
2023-05-09T03:56:58.624Z,35.53
2023-05-09T03:59:25.059Z,36.13
2023-05-09T04:01:51.582Z,33.67
2023-05-09T04:04:18.126Z,34.85
2023-05-09T04:06:44.602Z,32.20
2023-05-09T04:09:11.218Z,27.93
2023-05-09T04:11:37.644Z,28.27
2023-05-09T04:14:07.112Z,26.13
2023-05-09T04:16:33.941Z,30.23
2023-05-09T04:19:00.500Z,27.67
2023-05-09T04:21:26.883Z,31.23
2023-05-09T04:23:53.419Z,29.38
2023-05-09T04:26:22.562Z,30.35
2023-05-09T04:28:49.007Z,29.88
2023-05-09T04:31:15.631Z,30.88
2023-05-09T04:33:42.173Z,28.27
2023-05-09T04:36:09.016Z,26.58
2023-05-09T04:38:35.463Z,29.55
2023-05-09T04:41:02.009Z,28.08
2023-05-09T04:43:28.509Z,29.15
2023-05-09T04:45:54.928Z,26.77
2023-05-09T04:48:21.420Z,27.92
2023-05-09T04:50:48.613Z,27.38
2023-05-09T04:53:15.172Z,26.95
2023-05-09T04:55:41.613Z,23.90
2023-05-09T04:58:09.394Z,24.97
2023-05-09T05:00:36.166Z,25.67
2023-05-09T05:03:02.947Z,26.73
2023-05-09T05:05:29.639Z,29.33
2023-05-09T05:07:56.532Z,29.45
2023-05-09T05:10:23.083Z,26.53
2023-05-09T05:12:49.785Z,28.27
2023-05-09T05:15:17.645Z,27.45
2023-05-09T05:17:44.102Z,24.10
2023-05-09T05:20:10.930Z,24.30
2023-05-09T05:22:37.448Z,24.30
2023-05-09T05:25:05.050Z,25.70
2023-05-09T05:27:31.764Z,27.15
2023-05-09T05:30:04.662Z,25.25
2023-05-09T05:32:31.260Z,27.23
2023-05-09T05:34:57.847Z,29.33
2023-05-09T05:37:24.405Z,28.60
2023-05-09T05:39:51.710Z,29.42
2023-05-09T05:42:18.196Z,30.25
2023-05-09T05:44:44.860Z,27.13
2023-05-09T05:47:11.600Z,28.40
2023-05-09T05:49:38.575Z,26.38
2023-05-09T05:52:05.215Z,26.45
2023-05-09T05:54:31.734Z,26.88
2023-05-09T05:56:58.347Z,23.52
2023-05-09T05:59:33.581Z,23.43
2023-05-09T06:02:00.265Z,24.77
2023-05-09T06:04:28.125Z,22.80
2023-05-09T06:06:54.653Z,25.75
2023-05-09T06:09:21.178Z,23.40
2023-05-09T06:11:47.698Z,24.90
2023-05-09T06:14:14.174Z,23.60
2023-05-09T06:16:41.196Z,24.92
2023-05-09T06:19:07.973Z,25.20
2023-05-09T06:21:34.490Z,24.50
2023-05-09T06:24:08.362Z,26.73
2023-05-09T06:26:37.065Z,26.73
2023-05-09T06:29:06.009Z,27.45
2023-05-09T06:31:33.109Z,25.38
2023-05-09T06:33:59.651Z,26.80
2023-05-09T06:36:26.219Z,28.00
2023-05-09T06:38:52.670Z,28.30
2023-05-09T06:41:19.236Z,26.88
2023-05-09T06:43:45.725Z,26.02
2023-05-09T06:46:12.307Z,33.72
2023-05-09T06:48:41.228Z,26.70
2023-05-09T06:51:11.497Z,25.75
2023-05-09T06:53:38.438Z,25.98
2023-05-09T06:56:05.275Z,27.30
2023-05-09T06:58:31.888Z,30.17
2023-05-09T07:00:58.835Z,28.57
2023-05-09T07:03:26.098Z,28.75
2023-05-09T07:05:52.706Z,26.55
2023-05-09T07:08:19.251Z,27.38
2023-05-09T07:10:45.770Z,33.20
2023-05-09T07:13:12.294Z,28.07
2023-05-09T07:15:42.645Z,27.02
2023-05-09T07:18:09.843Z,26.25
2023-05-09T07:20:36.565Z,28.55
2023-05-09T07:23:04.173Z,27.70
2023-05-09T07:25:30.794Z,30.93
2023-05-09T07:27:57.845Z,29.77
2023-05-09T07:30:25.266Z,30.13
2023-05-09T07:32:52.254Z,29.65
2023-05-09T07:35:19.882Z,30.08
2023-05-09T07:37:46.431Z,30.80
2023-05-09T07:40:13.826Z,30.33
2023-05-09T07:42:40.782Z,30.45
2023-05-09T07:45:07.853Z,29.92
2023-05-09T07:47:34.534Z,30.48
2023-05-09T07:50:04.228Z,31.67
2023-05-09T07:52:30.995Z,31.23
2023-05-09T07:54:57.652Z,29.83
2023-05-09T07:57:24.224Z,31.67
2023-05-09T07:59:50.796Z,30.42
2023-05-09T08:02:17.449Z,28.17
2023-05-09T08:04:44.037Z,29.45
2023-05-09T08:07:11.792Z,30.13
2023-05-09T08:09:38.383Z,29.40
2023-05-09T08:12:05.317Z,25.73
2023-05-09T08:14:34.498Z,26.73
2023-05-09T08:17:01.143Z,29.45
2023-05-09T08:19:27.679Z,28.20
2023-05-09T08:21:54.523Z,30.67
2023-05-09T08:24:21.318Z,26.58
2023-05-09T08:26:47.763Z,27.57
2023-05-09T08:29:14.672Z,26.65
2023-05-09T08:31:41.210Z,26.77
2023-05-09T08:34:07.859Z,27.45
2023-05-09T08:36:34.440Z,25.83
2023-05-09T08:39:01.006Z,27.63
2023-05-09T08:41:30.957Z,25.02
2023-05-09T08:43:57.650Z,24.60
2023-05-09T08:46:44.207Z,26.90
2023-05-09T08:49:11.054Z,23.83
2023-05-09T08:51:38.290Z,27.37
2023-05-09T08:54:05.515Z,26.88
2023-05-09T08:56:34.187Z,29.75
2023-05-09T08:59:00.932Z,25.08
2023-05-09T09:01:27.916Z,28.08
2023-05-09T09:03:54.590Z,27.67
2023-05-09T09:06:23.345Z,25.83
2023-05-09T09:08:50.974Z,27.15
2023-05-09T09:11:18.747Z,28.25
2023-05-09T09:13:46.850Z,26.77
2023-05-09T09:16:21.117Z,27.10
2023-05-09T09:18:51.650Z,26.90
2023-05-09T09:21:19.756Z,27.95
2023-05-09T09:23:47.585Z,28.17
2023-05-09T09:26:14.436Z,24.48
2023-05-09T09:28:41.661Z,25.73
2023-05-09T09:31:28.367Z,24.50
2023-05-09T09:34:02.265Z,27.75
2023-05-09T09:36:36.845Z,23.95
2023-05-09T09:39:05.096Z,27.98
2023-05-09T09:41:33.308Z,24.30
2023-05-09T09:44:07.373Z,26.98
2023-05-09T09:46:55.194Z,26.50
2023-05-09T09:49:22.465Z,22.85
2023-05-09T09:51:54.345Z,29.85
2023-05-09T09:54:21.455Z,25.90
2023-05-09T09:56:54.457Z,27.63
2023-05-09T09:59:23.585Z,27.05
2023-05-09T10:01:56.452Z,26.85
2023-05-09T10:04:23.708Z,27.63
2023-05-09T10:06:57.550Z,25.87
2023-05-09T10:09:24.754Z,26.67
2023-05-09T10:11:52.442Z,25.00
2023-05-09T10:14:21.469Z,24.00
2023-05-09T10:16:49.723Z,24.58
2023-05-09T10:19:23.410Z,24.63
2023-05-09T10:21:52.863Z,23.83
2023-05-09T10:24:28.369Z,24.50
2023-05-09T10:27:06.087Z,22.83
2023-05-09T10:29:38.857Z,22.63
2023-05-09T10:32:15.499Z,21.80
2023-05-09T10:34:47.798Z,22.10
2023-05-09T10:37:16.817Z,21.48
2023-05-09T10:39:44.271Z,23.17
2023-05-09T10:42:12.404Z,22.15
2023-05-09T10:44:39.056Z,20.97
2023-05-09T10:47:06.637Z,22.35
2023-05-09T10:49:35.469Z,21.27
2023-05-09T10:52:03.807Z,21.05
2023-05-09T10:54:34.305Z,20.90
2023-05-09T10:57:01.039Z,19.90
2023-05-09T10:59:46.426Z,21.15
2023-05-09T11:02:14.619Z,21.77
2023-05-09T11:04:41.222Z,21.90
2023-05-09T11:07:26.794Z,22.13
2023-05-09T11:10:07.311Z,23.73
2023-05-09T11:12:34.157Z,23.25
2023-05-09T11:15:08.230Z,20.75
2023-05-09T11:17:38.786Z,24.23
2023-05-09T11:20:06.432Z,23.38
2023-05-09T11:22:44.310Z,24.03
2023-05-09T11:25:13.152Z,21.58
2023-05-09T11:27:47.845Z,21.08
2023-05-09T11:30:18.973Z,22.38
2023-05-09T11:32:55.270Z,22.92
2023-05-09T11:35:23.601Z,20.17
2023-05-09T11:38:00.431Z,23.52
2023-05-09T11:40:28.267Z,21.08
2023-05-09T11:42:58.333Z,20.85
2023-05-09T11:45:30.454Z,20.52
2023-05-09T11:47:57.679Z,26.57
2023-05-09T11:50:24.644Z,19.83
2023-05-09T11:52:51.336Z,25.50
2023-05-09T11:55:22.655Z,21.63
2023-05-09T11:57:51.988Z,23.40
2023-05-09T12:00:20.992Z,22.23
2023-05-09T12:02:48.130Z,24.10
2023-05-09T12:05:16.858Z,23.77
2023-05-09T12:07:44.580Z,21.10
2023-05-09T12:10:19.891Z,26.70
2023-05-09T12:12:50.917Z,19.80
2023-05-09T12:15:18.591Z,19.27
2023-05-09T12:17:47.240Z,19.30
2023-05-09T12:20:14.866Z,22.17
2023-05-09T12:22:44.489Z,22.83
2023-05-09T12:25:12.092Z,21.80
2023-05-09T12:27:40.359Z,26.60
2023-05-09T12:30:10.151Z,29.10
2023-05-09T12:32:39.683Z,25.00
2023-05-09T12:35:10.562Z,23.58
2023-05-09T12:37:38.143Z,26.13
2023-05-09T12:40:09.347Z,27.75
2023-05-09T12:42:36.092Z,25.77
2023-05-09T12:45:03.596Z,26.15
2023-05-09T12:47:31.748Z,26.13
2023-05-09T12:49:59.446Z,25.07
2023-05-09T12:52:26.115Z,25.95
2023-05-09T12:54:53.888Z,22.17
2023-05-09T12:57:23.179Z,21.92
2023-05-09T12:59:50.146Z,20.73
2023-05-09T13:02:16.865Z,22.13
2023-05-09T13:04:45.996Z,18.85
2023-05-09T13:07:12.479Z,19.77
2023-05-09T13:09:55.603Z,19.95
2023-05-09T13:12:22.172Z,18.60
2023-05-09T13:14:48.892Z,16.33
2023-05-09T13:17:18.438Z,17.23
2023-05-09T13:19:47.785Z,14.68
2023-05-09T13:22:14.540Z,15.55
2023-05-09T13:24:44.136Z,16.77
2023-05-09T13:27:12.204Z,17.30
2023-05-09T13:29:39.063Z,17.23
2023-05-09T13:32:05.886Z,17.58
2023-05-09T13:34:32.396Z,17.63
2023-05-09T13:36:59.131Z,15.98
2023-05-09T13:39:25.677Z,17.03
2023-05-09T13:41:52.946Z,14.73
2023-05-09T13:44:19.566Z,16.00
2023-05-09T13:46:47.064Z,14.60
2023-05-09T13:49:13.679Z,13.43
2023-05-09T13:51:40.282Z,14.73
2023-05-09T13:54:12.425Z,16.40
2023-05-09T13:56:39.593Z,11.43
2023-05-09T13:59:07.317Z,13.82
2023-05-09T14:01:34.129Z,11.93
2023-05-09T14:04:01.164Z,14.00
2023-05-09T14:06:29.060Z,12.18
2023-05-09T14:08:56.549Z,14.10
2023-05-09T14:11:23.413Z,11.60
2023-05-09T14:13:49.890Z,43.45
2023-05-09T14:16:16.508Z,25.73
2023-05-09T14:18:42.962Z,17.45
2023-05-09T14:21:09.419Z,12.48
2023-05-09T14:23:36.067Z,11.00
2023-05-09T14:26:02.613Z,11.65
2023-05-09T14:28:29.066Z,13.07
2023-05-09T14:30:55.846Z,17.25
2023-05-09T14:33:22.257Z,13.52
2023-05-09T14:35:48.676Z,29.92
2023-05-09T14:38:15.828Z,51.58
2023-05-09T14:40:42.324Z,20.20
2023-05-09T14:43:09.581Z,25.08
2023-05-09T14:45:36.186Z,10.52
2023-05-09T14:48:03.609Z,11.60
2023-05-09T14:50:30.254Z,13.82
2023-05-09T14:52:57.302Z,11.17
2023-05-09T14:55:23.770Z,12.05
2023-05-09T14:57:50.192Z,9.50
2023-05-09T15:00:21.791Z,10.75
2023-05-09T15:02:49.388Z,10.00
2023-05-09T15:05:16.903Z,11.37
2023-05-09T15:07:43.431Z,11.50
2023-05-09T15:10:10.401Z,12.60
2023-05-09T15:12:36.932Z,15.45
2023-05-09T15:15:14.047Z,11.88
2023-05-09T15:17:40.970Z,13.03
2023-05-09T15:20:08.073Z,12.95
2023-05-09T15:22:34.789Z,13.50
2023-05-09T15:25:02.961Z,14.38
2023-05-09T15:27:31.446Z,13.48
2023-05-09T15:29:58.119Z,13.93
2023-05-09T15:32:24.704Z,15.23
2023-05-09T15:37:27.593Z,14.90
2023-05-09T15:39:54.036Z,13.73
2023-05-09T15:42:20.507Z,18.67
2023-05-09T15:44:49.708Z,18.08
2023-05-09T15:47:16.415Z,13.65
2023-05-09T15:49:43.002Z,15.38
2023-05-09T15:52:10.723Z,14.70
2023-05-09T15:54:37.907Z,14.77
2023-05-09T15:57:05.065Z,13.68
2023-05-09T15:59:31.544Z,15.13
2023-05-09T16:01:58.147Z,16.17
2023-05-09T16:04:24.713Z,12.93
2023-05-09T16:06:51.729Z,15.87
2023-05-09T16:09:20.828Z,13.20
2023-05-09T16:11:47.482Z,14.05
2023-05-09T16:14:13.995Z,14.88
2023-05-09T16:16:40.701Z,14.75
2023-05-09T16:19:07.217Z,16.67
2023-05-09T16:21:33.700Z,18.27
2023-05-09T16:24:05.038Z,14.95
2023-05-09T16:26:31.683Z,20.05
2023-05-09T16:28:58.222Z,16.02
2023-05-09T16:31:26.694Z,16.27
2023-05-09T16:33:54.337Z,15.63
2023-05-09T16:36:22.036Z,13.73
2023-05-09T16:38:48.678Z,14.52
2023-05-09T16:41:15.946Z,18.70
2023-05-09T16:43:42.770Z,20.10
2023-05-09T16:46:11.507Z,13.93
2023-05-09T16:48:38.011Z,16.88
2023-05-09T16:51:04.783Z,15.98
2023-05-09T16:53:31.287Z,15.05
2023-05-09T16:55:58.446Z,16.83
2023-05-09T16:58:25.295Z,16.88
2023-05-09T17:00:55.343Z,18.23
2023-05-09T17:03:22.021Z,18.45
2023-05-09T17:05:48.416Z,17.30
2023-05-09T17:08:15.225Z,19.47
2023-05-09T17:10:42.296Z,18.67
2023-05-09T17:13:09.029Z,24.75
2023-05-09T17:15:36.910Z,24.73
2023-05-09T17:18:04.682Z,21.92
2023-05-09T17:20:31.740Z,23.63
2023-05-09T17:22:58.154Z,18.42
2023-05-09T17:25:24.607Z,27.50
2023-05-09T17:27:51.180Z,27.25
2023-05-09T17:30:19.407Z,23.10
2023-05-09T17:32:48.009Z,17.40
2023-05-09T17:35:15.102Z,22.05
2023-05-09T17:37:41.545Z,19.63
2023-05-09T17:40:08.734Z,19.27
2023-05-09T17:42:35.228Z,20.52
2023-05-09T17:45:01.816Z,22.83
2023-05-09T17:47:28.839Z,26.73
2023-05-09T17:49:55.431Z,27.02
2023-05-09T17:52:22.059Z,26.25
2023-05-09T17:54:48.802Z,32.92
2023-05-09T17:57:15.239Z,26.77
2023-05-09T17:59:41.684Z,25.30
2023-05-09T18:02:08.289Z,21.17
2023-05-09T18:04:34.765Z,23.00
2023-05-09T18:07:01.533Z,22.90
2023-05-09T18:09:28.148Z,26.30
2023-05-09T18:11:54.626Z,60.10
2023-05-09T18:14:22.374Z,27.98
2023-05-09T18:16:48.943Z,21.65
2023-05-09T18:19:15.489Z,31.27
2023-05-09T18:21:41.925Z,23.10
2023-05-09T18:24:09.233Z,21.45
2023-05-09T18:26:35.929Z,22.38
2023-05-09T18:29:02.532Z,22.73
2023-05-09T18:31:31.151Z,25.15
2023-05-09T18:33:57.650Z,31.67
2023-05-09T18:36:24.085Z,23.52
2023-05-09T18:38:50.977Z,23.00
2023-05-09T18:41:17.576Z,26.67
2023-05-09T18:43:46.820Z,36.15
2023-05-09T18:46:17.663Z,21.50
2023-05-09T18:48:45.641Z,17.27
2023-05-09T18:51:12.190Z,22.98
2023-05-09T18:53:38.742Z,16.33
2023-05-09T18:56:05.379Z,18.63
2023-05-09T18:58:32.405Z,16.27
2023-05-09T19:00:59.161Z,15.98
2023-05-09T19:03:27.141Z,15.48
2023-05-09T19:05:53.927Z,16.55
2023-05-09T19:08:20.626Z,16.15
2023-05-09T19:10:47.128Z,15.23
2023-05-09T19:13:16.064Z,14.57
2023-05-09T19:15:43.066Z,12.50
2023-05-09T19:18:09.614Z,13.88
2023-05-09T19:20:36.131Z,14.93
2023-05-09T19:23:02.721Z,12.23
2023-05-09T19:25:33.731Z,11.40
2023-05-09T19:28:01.522Z,10.90
2023-05-09T19:30:27.958Z,10.55
2023-05-09T19:32:54.592Z,12.02
2023-05-09T19:35:21.195Z,11.80
2023-05-09T19:37:47.710Z,12.48
2023-05-09T19:40:14.883Z,9.68
2023-05-09T19:42:41.919Z,11.15
2023-05-09T19:45:08.916Z,11.98
2023-05-09T19:47:35.569Z,18.53
2023-05-09T19:50:02.179Z,11.60
2023-05-09T19:52:29.787Z,9.48
2023-05-09T19:54:56.226Z,11.85
2023-05-09T19:57:22.819Z,11.10
2023-05-09T19:59:49.244Z,12.20
2023-05-09T20:02:15.724Z,11.32
2023-05-09T20:04:46.545Z,9.60
2023-05-09T20:07:13.099Z,32.20
2023-05-09T20:09:39.511Z,19.58
2023-05-09T20:12:06.424Z,24.87
2023-05-09T20:14:32.949Z,14.90
2023-05-09T20:16:59.447Z,12.32
2023-05-09T20:19:25.983Z,12.57
2023-05-09T20:21:52.528Z,12.43
2023-05-09T20:24:19.766Z,11.63
2023-05-09T20:26:46.357Z,12.43
2023-05-09T20:29:12.730Z,10.43
2023-05-09T20:31:41.818Z,13.35
2023-05-09T20:34:12.288Z,8.75
2023-05-09T20:36:38.807Z,6.73
2023-05-09T20:39:05.293Z,6.43
2023-05-09T20:41:32.005Z,6.30
2023-05-09T20:44:03.592Z,6.00
2023-05-09T20:46:30.906Z,5.50
2023-05-09T20:48:57.278Z,7.20
2023-05-09T20:51:23.935Z,9.50
2023-05-09T20:53:50.364Z,6.07
2023-05-09T20:56:16.942Z,5.53
2023-05-09T20:58:43.350Z,7.10
2023-05-09T21:01:09.937Z,6.83
2023-05-09T21:03:36.451Z,6.70
2023-05-09T21:06:03.053Z,6.75
2023-05-09T21:08:29.564Z,9.13
2023-05-09T21:10:56.090Z,7.82
2023-05-09T21:13:22.837Z,6.17
2023-05-09T21:15:50.819Z,7.75
2023-05-09T21:18:17.492Z,7.82
2023-05-09T21:20:45.087Z,9.52
2023-05-09T21:23:11.816Z,6.65
2023-05-09T21:25:38.241Z,7.40
2023-05-09T21:28:04.827Z,8.15
2023-05-09T21:30:31.613Z,7.40
2023-05-09T21:32:58.080Z,9.73
2023-05-09T21:35:24.518Z,7.85
2023-05-09T21:37:52.543Z,8.37
2023-05-09T21:40:19.126Z,9.05
2023-05-09T21:42:46.836Z,7.43
2023-05-09T21:45:13.614Z,6.47
2023-05-09T21:47:40.545Z,5.90
2023-05-09T21:50:10.587Z,6.50
2023-05-09T21:52:37.066Z,5.40
2023-05-09T21:55:03.758Z,8.60
2023-05-09T21:57:30.310Z,5.90
2023-05-09T22:00:00.989Z,5.45
2023-05-09T22:02:31.215Z,5.60
2023-05-09T22:04:57.921Z,7.13
2023-05-09T22:07:24.414Z,5.30
2023-05-09T22:09:50.920Z,5.05
2023-05-09T22:12:17.326Z,6.03
2023-05-09T22:14:55.259Z,10.17
2023-05-09T22:17:23.045Z,8.68
2023-05-09T22:19:49.541Z,8.90
2023-05-09T22:22:16.037Z,6.22
2023-05-09T22:24:42.720Z,5.53
2023-05-09T22:27:09.835Z,7.43
2023-05-09T22:29:36.417Z,9.50
2023-05-09T22:32:03.630Z,7.55
2023-05-09T22:34:30.676Z,7.13
2023-05-09T22:36:59.955Z,8.07
2023-05-09T22:39:26.814Z,7.20
2023-05-09T22:41:53.208Z,7.85
2023-05-09T22:44:19.727Z,6.00
2023-05-09T22:46:46.271Z,6.35
2023-05-09T22:49:12.876Z,5.97
2023-05-09T22:51:39.709Z,6.83
2023-05-09T22:54:06.253Z,5.72
2023-05-09T22:56:33.258Z,6.22
2023-05-09T22:58:59.750Z,5.72
2023-05-09T23:01:27.402Z,5.07
2023-05-09T23:03:53.932Z,6.33
2023-05-09T23:06:20.311Z,6.55
2023-05-09T23:08:46.838Z,6.90
2023-05-09T23:11:13.308Z,6.15
2023-05-09T23:13:39.782Z,13.07
2023-05-09T23:16:06.702Z,8.03
2023-05-09T23:18:33.124Z,5.32
2023-05-09T23:20:59.522Z,3.58
2023-05-09T23:23:26.119Z,2.58
2023-05-09T23:25:52.593Z,2.65
2023-05-09T23:28:20.349Z,1.80
2023-05-09T23:30:46.910Z,2.28
2023-05-09T23:33:13.361Z,1.90
2023-05-09T23:35:39.772Z,1.80
2023-05-09T23:38:06.305Z,3.35
2023-05-09T23:40:32.936Z,1.90
2023-05-09T23:42:59.503Z,2.30
2023-05-09T23:45:26.089Z,2.55
2023-05-09T23:47:52.803Z,2.47
2023-05-09T23:50:19.466Z,2.10
2023-05-09T23:52:49.177Z,3.00
2023-05-09T23:55:17.704Z,2.33
2023-05-09T23:57:44.424Z,1.90
